sensor_id;sensor_type;location;lat;lon;timestamp;temperature;humidity
23231;DHT22;11784;49.818;8.632;2022-11-20T00:00:26;9.20;83.30
23231;DHT22;11784;49.818;8.632;2022-11-20T00:02:52;9.20;83.30
23231;DHT22;11784;49.818;8.632;2022-11-20T00:05:17;9.20;83.30
23231;DHT22;11784;49.818;8.632;2022-11-20T00:07:43;9.20;83.70
23231;DHT22;11784;49.818;8.632;2022-11-20T00:10:09;9.20;83.40
23231;DHT22;11784;49.818;8.632;2022-11-20T00:12:34;9.20;84.10
23231;DHT22;11784;49.818;8.632;2022-11-20T00:15:00;9.20;83.70
23231;DHT22;11784;49.818;8.632;2022-11-20T00:17:26;9.20;84.10
23231;DHT22;11784;49.818;8.632;2022-11-20T00:19:51;9.20;84.20
23231;DHT22;11784;49.818;8.632;2022-11-20T00:22:17;9.20;84.40
23231;DHT22;11784;49.818;8.632;2022-11-20T00:24:42;9.20;83.80
23231;DHT22;11784;49.818;8.632;2022-11-20T00:27:08;9.20;83.60
23231;DHT22;11784;49.818;8.632;2022-11-20T00:29:33;9.10;84.50
23231;DHT22;11784;49.818;8.632;2022-11-20T00:31:59;9.20;84.00
23231;DHT22;11784;49.818;8.632;2022-11-20T00:34:24;9.10;84.20
23231;DHT22;11784;49.818;8.632;2022-11-20T00:36:50;9.10;84.70
23231;DHT22;11784;49.818;8.632;2022-11-20T00:39:15;9.10;84.00
23231;DHT22;11784;49.818;8.632;2022-11-20T00:41:41;9.10;84.40
23231;DHT22;11784;49.818;8.632;2022-11-20T00:44:06;9.10;84.80
23231;DHT22;11784;49.818;8.632;2022-11-20T00:46:32;9.10;84.60
23231;DHT22;11784;49.818;8.632;2022-11-20T00:48:57;9.10;84.20
23231;DHT22;11784;49.818;8.632;2022-11-20T00:51:24;9.20;84.70
23231;DHT22;11784;49.818;8.632;2022-11-20T00:53:50;9.10;84.30
23231;DHT22;11784;49.818;8.632;2022-11-20T00:56:18;9.10;84.50
23231;DHT22;11784;49.818;8.632;2022-11-20T00:58:45;9.10;84.30
23231;DHT22;11784;49.818;8.632;2022-11-20T01:01:17;9.10;84.10
23231;DHT22;11784;49.818;8.632;2022-11-20T01:03:45;9.10;84.30
23231;DHT22;11784;49.818;8.632;2022-11-20T01:06:18;9.10;84.40
23231;DHT22;11784;49.818;8.632;2022-11-20T01:08:44;9.10;84.50
23231;DHT22;11784;49.818;8.632;2022-11-20T01:11:13;9.10;84.70
23231;DHT22;11784;49.818;8.632;2022-11-20T01:13:39;9.10;84.80
23231;DHT22;11784;49.818;8.632;2022-11-20T01:16:11;9.10;85.10
23231;DHT22;11784;49.818;8.632;2022-11-20T01:18:39;9.10;85.10
23231;DHT22;11784;49.818;8.632;2022-11-20T01:21:07;9.10;85.10
23231;DHT22;11784;49.818;8.632;2022-11-20T01:23:38;9.10;85.20
23231;DHT22;11784;49.818;8.632;2022-11-20T01:26:06;9.10;84.80
23231;DHT22;11784;49.818;8.632;2022-11-20T01:28:32;9.10;85.20
23231;DHT22;11784;49.818;8.632;2022-11-20T01:30:58;9.10;85.30
23231;DHT22;11784;49.818;8.632;2022-11-20T01:33:24;9.20;85.40
23231;DHT22;11784;49.818;8.632;2022-11-20T01:35:50;9.20;85.00
23231;DHT22;11784;49.818;8.632;2022-11-20T01:38:16;9.20;84.90
23231;DHT22;11784;49.818;8.632;2022-11-20T01:40:42;9.20;84.90
23231;DHT22;11784;49.818;8.632;2022-11-20T01:43:17;9.20;84.70
23231;DHT22;11784;49.818;8.632;2022-11-20T01:48:20;9.20;85.00
23231;DHT22;11784;49.818;8.632;2022-11-20T01:50:48;9.20;85.20
23231;DHT22;11784;49.818;8.632;2022-11-20T01:53:16;9.20;85.30
23231;DHT22;11784;49.818;8.632;2022-11-20T01:55:48;9.20;85.10
23231;DHT22;11784;49.818;8.632;2022-11-20T01:58:16;9.20;85.20
23231;DHT22;11784;49.818;8.632;2022-11-20T02:00:41;9.20;85.10
23231;DHT22;11784;49.818;8.632;2022-11-20T02:03:11;9.20;85.00
23231;DHT22;11784;49.818;8.632;2022-11-20T02:05:59;9.10;85.10
23231;DHT22;11784;49.818;8.632;2022-11-20T02:08:26;9.20;85.40
23231;DHT22;11784;49.818;8.632;2022-11-20T02:10:53;9.10;85.10
23231;DHT22;11784;49.818;8.632;2022-11-20T02:13:19;9.10;84.90
23231;DHT22;11784;49.818;8.632;2022-11-20T02:16:04;9.10;85.00
23231;DHT22;11784;49.818;8.632;2022-11-20T02:18:30;9.10;85.10
23231;DHT22;11784;49.818;8.632;2022-11-20T02:21:04;9.10;85.60
23231;DHT22;11784;49.818;8.632;2022-11-20T02:23:39;9.00;85.70
23231;DHT22;11784;49.818;8.632;2022-11-20T02:26:11;9.00;85.80
23231;DHT22;11784;49.818;8.632;2022-11-20T02:28:37;9.00;85.50
23231;DHT22;11784;49.818;8.632;2022-11-20T02:31:03;9.00;85.90
23231;DHT22;11784;49.818;8.632;2022-11-20T02:33:28;9.00;84.90
23231;DHT22;11784;49.818;8.632;2022-11-20T02:35:54;9.00;85.10
23231;DHT22;11784;49.818;8.632;2022-11-20T02:38:20;9.00;85.30
23231;DHT22;11784;49.818;8.632;2022-11-20T02:40:45;9.00;85.30
23231;DHT22;11784;49.818;8.632;2022-11-20T02:43:11;8.90;85.80
23231;DHT22;11784;49.818;8.632;2022-11-20T02:45:37;8.90;85.00
23231;DHT22;11784;49.818;8.632;2022-11-20T02:48:03;8.90;84.50
23231;DHT22;11784;49.818;8.632;2022-11-20T02:50:28;8.90;85.20
23231;DHT22;11784;49.818;8.632;2022-11-20T02:52:54;8.80;85.30
23231;DHT22;11784;49.818;8.632;2022-11-20T02:55:19;8.80;85.30
23231;DHT22;11784;49.818;8.632;2022-11-20T02:57:45;8.80;85.10
23231;DHT22;11784;49.818;8.632;2022-11-20T03:00:11;8.80;85.20
23231;DHT22;11784;49.818;8.632;2022-11-20T03:02:37;8.70;85.70
23231;DHT22;11784;49.818;8.632;2022-11-20T03:05:02;8.70;85.70
23231;DHT22;11784;49.818;8.632;2022-11-20T03:07:28;8.70;86.00
23231;DHT22;11784;49.818;8.632;2022-11-20T03:09:53;8.70;86.00
23231;DHT22;11784;49.818;8.632;2022-11-20T03:12:19;8.80;85.80
23231;DHT22;11784;49.818;8.632;2022-11-20T03:14:44;8.70;85.50
23231;DHT22;11784;49.818;8.632;2022-11-20T03:17:10;8.70;86.70
23231;DHT22;11784;49.818;8.632;2022-11-20T03:19:35;8.70;85.70
23231;DHT22;11784;49.818;8.632;2022-11-20T03:22:01;8.60;85.80
23231;DHT22;11784;49.818;8.632;2022-11-20T03:24:27;8.70;85.90
23231;DHT22;11784;49.818;8.632;2022-11-20T03:26:52;8.70;85.60
23231;DHT22;11784;49.818;8.632;2022-11-20T03:29:18;8.80;85.70
23231;DHT22;11784;49.818;8.632;2022-11-20T03:31:43;8.80;86.20
23231;DHT22;11784;49.818;8.632;2022-11-20T03:34:10;8.80;86.40
23231;DHT22;11784;49.818;8.632;2022-11-20T03:36:41;8.70;85.10
23231;DHT22;11784;49.818;8.632;2022-11-20T03:39:07;8.80;85.80
23231;DHT22;11784;49.818;8.632;2022-11-20T03:41:37;8.80;85.80
23231;DHT22;11784;49.818;8.632;2022-11-20T03:44:04;8.80;85.50
23231;DHT22;11784;49.818;8.632;2022-11-20T03:46:30;8.80;85.80
23231;DHT22;11784;49.818;8.632;2022-11-20T03:48:56;8.80;85.80
23231;DHT22;11784;49.818;8.632;2022-11-20T03:51:29;8.80;85.30
23231;DHT22;11784;49.818;8.632;2022-11-20T03:53:58;8.80;85.60
23231;DHT22;11784;49.818;8.632;2022-11-20T03:56:35;8.80;86.20
23231;DHT22;11784;49.818;8.632;2022-11-20T03:59:01;8.80;86.50
23231;DHT22;11784;49.818;8.632;2022-11-20T04:01:32;8.80;85.20
23231;DHT22;11784;49.818;8.632;2022-11-20T04:03:58;8.80;85.50
23231;DHT22;11784;49.818;8.632;2022-11-20T04:06:26;8.80;85.50
23231;DHT22;11784;49.818;8.632;2022-11-20T04:08:54;8.80;85.50
23231;DHT22;11784;49.818;8.632;2022-11-20T04:11:23;8.80;85.70
23231;DHT22;11784;49.818;8.632;2022-11-20T04:13:54;8.80;85.70
23231;DHT22;11784;49.818;8.632;2022-11-20T04:16:21;8.80;85.90
23231;DHT22;11784;49.818;8.632;2022-11-20T04:18:47;8.80;85.90
23231;DHT22;11784;49.818;8.632;2022-11-20T04:21:12;8.90;86.10
23231;DHT22;11784;49.818;8.632;2022-11-20T04:23:38;8.80;86.10
23231;DHT22;11784;49.818;8.632;2022-11-20T04:26:06;8.90;85.70
23231;DHT22;11784;49.818;8.632;2022-11-20T04:28:32;8.90;85.50
23231;DHT22;11784;49.818;8.632;2022-11-20T04:33:32;8.90;86.00
23231;DHT22;11784;49.818;8.632;2022-11-20T04:36:12;8.90;85.90
23231;DHT22;11784;49.818;8.632;2022-11-20T04:38:39;9.00;85.80
23231;DHT22;11784;49.818;8.632;2022-11-20T04:41:06;8.90;86.10
23231;DHT22;11784;49.818;8.632;2022-11-20T04:43:32;9.00;85.70
23231;DHT22;11784;49.818;8.632;2022-11-20T04:45:59;9.00;85.20
23231;DHT22;11784;49.818;8.632;2022-11-20T04:48:26;9.00;85.70
23231;DHT22;11784;49.818;8.632;2022-11-20T04:50:52;9.00;85.70
23231;DHT22;11784;49.818;8.632;2022-11-20T04:53:18;9.00;86.40
23231;DHT22;11784;49.818;8.632;2022-11-20T04:55:44;9.00;86.20
23231;DHT22;11784;49.818;8.632;2022-11-20T04:58:09;9.00;85.40
23231;DHT22;11784;49.818;8.632;2022-11-20T05:00:35;9.00;86.30
23231;DHT22;11784;49.818;8.632;2022-11-20T05:03:01;9.10;85.60
23231;DHT22;11784;49.818;8.632;2022-11-20T05:05:26;9.00;85.70
23231;DHT22;11784;49.818;8.632;2022-11-20T05:07:52;9.00;85.70
23231;DHT22;11784;49.818;8.632;2022-11-20T05:10:17;9.00;85.20
23231;DHT22;11784;49.818;8.632;2022-11-20T05:12:43;9.00;85.60
23231;DHT22;11784;49.818;8.632;2022-11-20T05:15:09;9.00;85.40
23231;DHT22;11784;49.818;8.632;2022-11-20T05:17:34;9.00;85.30
23231;DHT22;11784;49.818;8.632;2022-11-20T05:20:00;9.00;85.40
23231;DHT22;11784;49.818;8.632;2022-11-20T05:22:25;9.00;85.20
23231;DHT22;11784;49.818;8.632;2022-11-20T05:24:51;9.00;85.60
23231;DHT22;11784;49.818;8.632;2022-11-20T05:27:16;9.00;85.20
23231;DHT22;11784;49.818;8.632;2022-11-20T05:29:42;9.00;85.20
23231;DHT22;11784;49.818;8.632;2022-11-20T05:32:07;9.00;85.80
23231;DHT22;11784;49.818;8.632;2022-11-20T05:34:35;9.00;85.50
23231;DHT22;11784;49.818;8.632;2022-11-20T05:37:01;9.00;85.20
23231;DHT22;11784;49.818;8.632;2022-11-20T05:39:26;9.00;85.10
23231;DHT22;11784;49.818;8.632;2022-11-20T05:41:52;9.00;85.60
23231;DHT22;11784;49.818;8.632;2022-11-20T05:44:37;8.90;85.90
23231;DHT22;11784;49.818;8.632;2022-11-20T05:47:03;8.90;85.90
23231;DHT22;11784;49.818;8.632;2022-11-20T05:49:28;9.00;85.60
23231;DHT22;11784;49.818;8.632;2022-11-20T05:51:54;8.90;86.30
23231;DHT22;11784;49.818;8.632;2022-11-20T05:54:19;8.90;85.80
23231;DHT22;11784;49.818;8.632;2022-11-20T05:56:45;8.90;86.30
23231;DHT22;11784;49.818;8.632;2022-11-20T05:59:10;9.00;85.50
23231;DHT22;11784;49.818;8.632;2022-11-20T06:01:36;9.00;85.80
23231;DHT22;11784;49.818;8.632;2022-11-20T06:04:01;8.90;85.80
23231;DHT22;11784;49.818;8.632;2022-11-20T06:06:27;9.00;85.80
23231;DHT22;11784;49.818;8.632;2022-11-20T06:08:54;9.00;85.70
23231;DHT22;11784;49.818;8.632;2022-11-20T06:11:20;9.00;85.50
23231;DHT22;11784;49.818;8.632;2022-11-20T06:13:46;8.90;85.00
23231;DHT22;11784;49.818;8.632;2022-11-20T06:16:13;8.90;85.70
23231;DHT22;11784;49.818;8.632;2022-11-20T06:18:39;8.90;86.70
23231;DHT22;11784;49.818;8.632;2022-11-20T06:21:11;8.90;87.10
23231;DHT22;11784;49.818;8.632;2022-11-20T06:23:38;8.90;87.00
23231;DHT22;11784;49.818;8.632;2022-11-20T06:26:05;8.90;87.00
23231;DHT22;11784;49.818;8.632;2022-11-20T06:28:31;8.90;86.20
23231;DHT22;11784;49.818;8.632;2022-11-20T06:30:57;9.00;85.60
23231;DHT22;11784;49.818;8.632;2022-11-20T06:33:23;9.00;85.80
23231;DHT22;11784;49.818;8.632;2022-11-20T06:35:48;9.00;85.60
23231;DHT22;11784;49.818;8.632;2022-11-20T06:38:14;9.00;85.40
23231;DHT22;11784;49.818;8.632;2022-11-20T06:40:40;9.00;85.40
23231;DHT22;11784;49.818;8.632;2022-11-20T06:43:06;9.00;85.60
23231;DHT22;11784;49.818;8.632;2022-11-20T06:45:31;9.00;86.00
23231;DHT22;11784;49.818;8.632;2022-11-20T06:47:57;9.00;86.30
23231;DHT22;11784;49.818;8.632;2022-11-20T06:50:23;9.00;86.00
23231;DHT22;11784;49.818;8.632;2022-11-20T06:52:49;8.90;86.10
23231;DHT22;11784;49.818;8.632;2022-11-20T06:55:14;8.90;87.10
23231;DHT22;11784;49.818;8.632;2022-11-20T06:57:40;9.00;87.40
23231;DHT22;11784;49.818;8.632;2022-11-20T07:00:06;9.00;87.40
23231;DHT22;11784;49.818;8.632;2022-11-20T07:02:32;9.00;87.50
23231;DHT22;11784;49.818;8.632;2022-11-20T07:04:57;9.00;87.60
23231;DHT22;11784;49.818;8.632;2022-11-20T07:07:23;9.00;87.60
23231;DHT22;11784;49.818;8.632;2022-11-20T07:09:48;9.00;87.60
23231;DHT22;11784;49.818;8.632;2022-11-20T07:12:14;9.10;87.60
23231;DHT22;11784;49.818;8.632;2022-11-20T07:14:39;9.10;87.20
23231;DHT22;11784;49.818;8.632;2022-11-20T07:17:04;9.10;87.40
23231;DHT22;11784;49.818;8.632;2022-11-20T07:19:30;9.10;87.20
23231;DHT22;11784;49.818;8.632;2022-11-20T07:21:55;9.00;86.00
23231;DHT22;11784;49.818;8.632;2022-11-20T07:24:21;8.90;85.00
23231;DHT22;11784;49.818;8.632;2022-11-20T07:26:47;9.00;86.20
23231;DHT22;11784;49.818;8.632;2022-11-20T07:29:14;8.90;86.90
23231;DHT22;11784;49.818;8.632;2022-11-20T07:31:41;9.00;86.30
23231;DHT22;11784;49.818;8.632;2022-11-20T07:34:07;9.00;87.10
23231;DHT22;11784;49.818;8.632;2022-11-20T07:36:32;9.00;87.30
23231;DHT22;11784;49.818;8.632;2022-11-20T07:38:58;9.00;87.50
23231;DHT22;11784;49.818;8.632;2022-11-20T07:41:23;9.00;86.20
23231;DHT22;11784;49.818;8.632;2022-11-20T07:43:49;9.00;86.80
23231;DHT22;11784;49.818;8.632;2022-11-20T07:46:14;9.00;86.70
23231;DHT22;11784;49.818;8.632;2022-11-20T07:48:39;9.10;86.40
23231;DHT22;11784;49.818;8.632;2022-11-20T07:51:05;9.10;86.10
23231;DHT22;11784;49.818;8.632;2022-11-20T07:53:31;9.10;86.70
23231;DHT22;11784;49.818;8.632;2022-11-20T07:56:00;9.10;86.10
23231;DHT22;11784;49.818;8.632;2022-11-20T07:58:26;9.10;86.10
23231;DHT22;11784;49.818;8.632;2022-11-20T08:00:51;9.10;86.10
23231;DHT22;11784;49.818;8.632;2022-11-20T08:03:17;9.10;86.20
23231;DHT22;11784;49.818;8.632;2022-11-20T08:05:42;9.10;86.00
23231;DHT22;11784;49.818;8.632;2022-11-20T08:08:08;9.10;85.70
23231;DHT22;11784;49.818;8.632;2022-11-20T08:10:33;9.10;85.80
23231;DHT22;11784;49.818;8.632;2022-11-20T08:12:59;9.10;85.90
23231;DHT22;11784;49.818;8.632;2022-11-20T08:15:48;9.10;85.20
23231;DHT22;11784;49.818;8.632;2022-11-20T08:18:14;9.10;85.00
23231;DHT22;11784;49.818;8.632;2022-11-20T08:20:39;9.10;85.10
23231;DHT22;11784;49.818;8.632;2022-11-20T08:23:06;9.10;85.80
23231;DHT22;11784;49.818;8.632;2022-11-20T08:25:34;9.10;85.30
23231;DHT22;11784;49.818;8.632;2022-11-20T08:28:08;9.20;84.80
23231;DHT22;11784;49.818;8.632;2022-11-20T08:30:35;9.20;84.30
23231;DHT22;11784;49.818;8.632;2022-11-20T08:33:05;9.20;85.20
23231;DHT22;11784;49.818;8.632;2022-11-20T08:35:38;9.20;86.20
23231;DHT22;11784;49.818;8.632;2022-11-20T08:38:06;9.20;86.20
23231;DHT22;11784;49.818;8.632;2022-11-20T08:40:32;9.30;85.90
23231;DHT22;11784;49.818;8.632;2022-11-20T08:42:58;9.30;86.10
23231;DHT22;11784;49.818;8.632;2022-11-20T08:45:24;9.40;85.70
23231;DHT22;11784;49.818;8.632;2022-11-20T08:47:49;9.40;85.30
23231;DHT22;11784;49.818;8.632;2022-11-20T08:50:16;9.40;84.80
23231;DHT22;11784;49.818;8.632;2022-11-20T08:52:42;9.40;85.00
23231;DHT22;11784;49.818;8.632;2022-11-20T08:55:09;9.50;85.80
23231;DHT22;11784;49.818;8.632;2022-11-20T08:57:35;9.40;85.70
23231;DHT22;11784;49.818;8.632;2022-11-20T09:00:03;9.50;86.30
23231;DHT22;11784;49.818;8.632;2022-11-20T09:02:28;9.50;86.50
23231;DHT22;11784;49.818;8.632;2022-11-20T09:04:54;9.50;86.70
23231;DHT22;11784;49.818;8.632;2022-11-20T09:07:20;9.60;86.50
23231;DHT22;11784;49.818;8.632;2022-11-20T09:09:45;9.60;86.40
23231;DHT22;11784;49.818;8.632;2022-11-20T09:12:11;9.70;86.20
23231;DHT22;11784;49.818;8.632;2022-11-20T09:14:36;9.70;86.30
23231;DHT22;11784;49.818;8.632;2022-11-20T09:17:02;9.70;85.50
23231;DHT22;11784;49.818;8.632;2022-11-20T09:19:28;9.70;86.20
23231;DHT22;11784;49.818;8.632;2022-11-20T09:21:53;9.80;86.40
23231;DHT22;11784;49.818;8.632;2022-11-20T09:24:19;9.80;86.70
23231;DHT22;11784;49.818;8.632;2022-11-20T09:26:46;9.80;86.40
23231;DHT22;11784;49.818;8.632;2022-11-20T09:29:11;9.90;85.60
23231;DHT22;11784;49.818;8.632;2022-11-20T09:31:37;9.90;84.90
23231;DHT22;11784;49.818;8.632;2022-11-20T09:34:02;9.90;84.30
23231;DHT22;11784;49.818;8.632;2022-11-20T09:36:28;9.90;84.30
23231;DHT22;11784;49.818;8.632;2022-11-20T09:38:53;9.90;83.90
23231;DHT22;11784;49.818;8.632;2022-11-20T09:41:56;9.90;84.60
23231;DHT22;11784;49.818;8.632;2022-11-20T09:45:44;9.90;85.00
23231;DHT22;11784;49.818;8.632;2022-11-20T09:47:57;9.90;84.70
23231;DHT22;11784;49.818;8.632;2022-11-20T09:50:35;9.90;85.00
23231;DHT22;11784;49.818;8.632;2022-11-20T09:55:49;9.80;84.70
23231;DHT22;11784;49.818;8.632;2022-11-20T09:58:31;9.80;84.50
23231;DHT22;11784;49.818;8.632;2022-11-20T10:01:12;9.80;84.70
23231;DHT22;11784;49.818;8.632;2022-11-20T10:03:45;9.80;85.10
23231;DHT22;11784;49.818;8.632;2022-11-20T10:06:17;9.80;85.50
23231;DHT22;11784;49.818;8.632;2022-11-20T10:11:55;9.80;85.50
23231;DHT22;11784;49.818;8.632;2022-11-20T10:20:09;9.80;86.00
23231;DHT22;11784;49.818;8.632;2022-11-20T10:25:36;9.80;85.30
23231;DHT22;11784;49.818;8.632;2022-11-20T10:28:36;9.90;85.70
23231;DHT22;11784;49.818;8.632;2022-11-20T10:31:13;9.90;85.50
23231;DHT22;11784;49.818;8.632;2022-11-20T10:33:42;9.90;85.20
23231;DHT22;11784;49.818;8.632;2022-11-20T10:36:23;9.90;85.10
23231;DHT22;11784;49.818;8.632;2022-11-20T10:41:44;9.80;85.40
23231;DHT22;11784;49.818;8.632;2022-11-20T10:44:19;9.80;85.50
23231;DHT22;11784;49.818;8.632;2022-11-20T10:47:08;9.80;85.00
23231;DHT22;11784;49.818;8.632;2022-11-20T10:49:35;9.80;85.50
23231;DHT22;11784;49.818;8.632;2022-11-20T10:52:17;9.80;86.40
23231;DHT22;11784;49.818;8.632;2022-11-20T11:00:47;9.80;87.20
23231;DHT22;11784;49.818;8.632;2022-11-20T11:03:31;9.80;86.90
23231;DHT22;11784;49.818;8.632;2022-11-20T11:06:10;9.90;87.00
23231;DHT22;11784;49.818;8.632;2022-11-20T11:08:39;9.80;86.50
23231;DHT22;11784;49.818;8.632;2022-11-20T11:11:22;9.90;86.30
23231;DHT22;11784;49.818;8.632;2022-11-20T11:13:48;9.90;86.60
23231;DHT22;11784;49.818;8.632;2022-11-20T11:16:24;9.90;86.60
23231;DHT22;11784;49.818;8.632;2022-11-20T11:18:51;9.90;87.30
23231;DHT22;11784;49.818;8.632;2022-11-20T11:21:24;9.90;87.20
23231;DHT22;11784;49.818;8.632;2022-11-20T11:24:04;9.90;87.30
23231;DHT22;11784;49.818;8.632;2022-11-20T11:26:30;9.90;87.30
23231;DHT22;11784;49.818;8.632;2022-11-20T11:29:00;9.90;87.50
23231;DHT22;11784;49.818;8.632;2022-11-20T11:31:27;10.00;87.80
23231;DHT22;11784;49.818;8.632;2022-11-20T11:34:15;10.00;88.00
23231;DHT22;11784;49.818;8.632;2022-11-20T11:36:42;10.00;88.00
23231;DHT22;11784;49.818;8.632;2022-11-20T11:39:15;10.10;88.40
23231;DHT22;11784;49.818;8.632;2022-11-20T11:41:43;10.00;88.40
23231;DHT22;11784;49.818;8.632;2022-11-20T11:44:43;10.10;88.30
23231;DHT22;11784;49.818;8.632;2022-11-20T11:47:47;10.10;88.20
23231;DHT22;11784;49.818;8.632;2022-11-20T11:50:16;10.20;88.60
23231;DHT22;11784;49.818;8.632;2022-11-20T11:53:07;10.20;88.50
23231;DHT22;11784;49.818;8.632;2022-11-20T11:55:47;10.30;88.70
23231;DHT22;11784;49.818;8.632;2022-11-20T12:01:38;10.30;87.70
23231;DHT22;11784;49.818;8.632;2022-11-20T12:07:39;10.30;88.90
23231;DHT22;11784;49.818;8.632;2022-11-20T12:10:15;10.30;88.80
23231;DHT22;11784;49.818;8.632;2022-11-20T12:12:45;10.30;89.20
23231;DHT22;11784;49.818;8.632;2022-11-20T12:15:28;10.30;89.80
23231;DHT22;11784;49.818;8.632;2022-11-20T12:17:54;10.40;89.60
23231;DHT22;11784;49.818;8.632;2022-11-20T12:20:24;10.50;89.20
23231;DHT22;11784;49.818;8.632;2022-11-20T12:25:35;10.60;88.90
23231;DHT22;11784;49.818;8.632;2022-11-20T12:28:27;10.50;88.40
23231;DHT22;11784;49.818;8.632;2022-11-20T12:31:12;10.60;89.20
23231;DHT22;11784;49.818;8.632;2022-11-20T12:36:27;10.60;89.80
23231;DHT22;11784;49.818;8.632;2022-11-20T12:42:01;10.70;89.10
23231;DHT22;11784;49.818;8.632;2022-11-20T12:59:16;10.90;89.50
23231;DHT22;11784;49.818;8.632;2022-11-20T13:02:03;11.00;89.30
23231;DHT22;11784;49.818;8.632;2022-11-20T13:07:21;11.00;89.80
23231;DHT22;11784;49.818;8.632;2022-11-20T13:09:50;11.10;89.80
23231;DHT22;11784;49.818;8.632;2022-11-20T13:12:24;11.10;89.90
23231;DHT22;11784;49.818;8.632;2022-11-20T13:17:58;11.20;90.50
23231;DHT22;11784;49.818;8.632;2022-11-20T13:20:24;11.20;90.10
23231;DHT22;11784;49.818;8.632;2022-11-20T13:22:55;11.30;90.00
23231;DHT22;11784;49.818;8.632;2022-11-20T13:25:34;11.30;90.10
23231;DHT22;11784;49.818;8.632;2022-11-20T13:28:05;11.30;90.20
23231;DHT22;11784;49.818;8.632;2022-11-20T13:30:51;11.40;90.30
23231;DHT22;11784;49.818;8.632;2022-11-20T13:33:37;11.40;90.30
23231;DHT22;11784;49.818;8.632;2022-11-20T13:36:19;11.40;90.30
23231;DHT22;11784;49.818;8.632;2022-11-20T13:38:50;11.50;90.30
23231;DHT22;11784;49.818;8.632;2022-11-20T13:41:34;11.50;90.30
23231;DHT22;11784;49.818;8.632;2022-11-20T13:44:14;11.50;90.10
23231;DHT22;11784;49.818;8.632;2022-11-20T13:46:45;11.50;90.00
23231;DHT22;11784;49.818;8.632;2022-11-20T13:49:20;11.60;90.20
23231;DHT22;11784;49.818;8.632;2022-11-20T13:51:48;11.50;90.10
23231;DHT22;11784;49.818;8.632;2022-11-20T13:54:46;11.50;90.40
23231;DHT22;11784;49.818;8.632;2022-11-20T14:02:39;11.50;90.60
23231;DHT22;11784;49.818;8.632;2022-11-20T14:05:05;11.40;90.60
23231;DHT22;11784;49.818;8.632;2022-11-20T14:07:41;11.50;90.80
23231;DHT22;11784;49.818;8.632;2022-11-20T14:10:20;11.50;90.30
23231;DHT22;11784;49.818;8.632;2022-11-20T14:12:46;11.40;90.40
23231;DHT22;11784;49.818;8.632;2022-11-20T14:15:25;11.40;90.60
23231;DHT22;11784;49.818;8.632;2022-11-20T14:17:51;11.40;90.70
23231;DHT22;11784;49.818;8.632;2022-11-20T14:20:17;11.40;90.80
23231;DHT22;11784;49.818;8.632;2022-11-20T14:22:49;11.40;90.60
23231;DHT22;11784;49.818;8.632;2022-11-20T14:25:19;11.40;90.50
23231;DHT22;11784;49.818;8.632;2022-11-20T14:27:54;11.40;90.60
23231;DHT22;11784;49.818;8.632;2022-11-20T14:30:26;11.50;90.60
23231;DHT22;11784;49.818;8.632;2022-11-20T14:32:55;11.50;90.60
23231;DHT22;11784;49.818;8.632;2022-11-20T14:35:29;11.50;90.60
23231;DHT22;11784;49.818;8.632;2022-11-20T14:37:57;11.50;90.60
23231;DHT22;11784;49.818;8.632;2022-11-20T14:40:34;11.50;90.60
23231;DHT22;11784;49.818;8.632;2022-11-20T14:43:24;11.50;90.50
23231;DHT22;11784;49.818;8.632;2022-11-20T14:45:58;11.50;90.60
23231;DHT22;11784;49.818;8.632;2022-11-20T14:48:29;11.50;90.60
23231;DHT22;11784;49.818;8.632;2022-11-20T14:50:56;11.50;90.70
23231;DHT22;11784;49.818;8.632;2022-11-20T14:53:23;11.50;90.70
23231;DHT22;11784;49.818;8.632;2022-11-20T14:55:55;11.50;90.70
23231;DHT22;11784;49.818;8.632;2022-11-20T14:58:23;11.50;90.70
23231;DHT22;11784;49.818;8.632;2022-11-20T15:00:56;11.40;90.70
23231;DHT22;11784;49.818;8.632;2022-11-20T15:03:22;11.40;90.80
23231;DHT22;11784;49.818;8.632;2022-11-20T15:05:49;11.40;90.80
23231;DHT22;11784;49.818;8.632;2022-11-20T15:08:16;11.40;90.70
23231;DHT22;11784;49.818;8.632;2022-11-20T15:10:49;11.40;90.80
23231;DHT22;11784;49.818;8.632;2022-11-20T15:13:29;11.30;90.90
23231;DHT22;11784;49.818;8.632;2022-11-20T15:15:57;11.30;90.90
23231;DHT22;11784;49.818;8.632;2022-11-20T15:18:25;11.30;90.90
23231;DHT22;11784;49.818;8.632;2022-11-20T15:20:52;11.30;90.90
23231;DHT22;11784;49.818;8.632;2022-11-20T15:23:20;11.30;90.90
23231;DHT22;11784;49.818;8.632;2022-11-20T15:25:46;11.30;90.90
23231;DHT22;11784;49.818;8.632;2022-11-20T15:28:16;11.20;91.00
23231;DHT22;11784;49.818;8.632;2022-11-20T15:30:43;11.20;91.00
23231;DHT22;11784;49.818;8.632;2022-11-20T15:33:10;11.20;91.10
23231;DHT22;11784;49.818;8.632;2022-11-20T15:35:35;11.20;91.10
23231;DHT22;11784;49.818;8.632;2022-11-20T15:38:01;11.20;91.10
23231;DHT22;11784;49.818;8.632;2022-11-20T15:40:26;11.20;91.00
23231;DHT22;11784;49.818;8.632;2022-11-20T15:42:52;11.20;91.00
23231;DHT22;11784;49.818;8.632;2022-11-20T15:45:50;11.10;90.90
23231;DHT22;11784;49.818;8.632;2022-11-20T15:48:26;11.10;91.00
23231;DHT22;11784;49.818;8.632;2022-11-20T15:50:58;11.10;91.00
23231;DHT22;11784;49.818;8.632;2022-11-20T15:53:24;11.10;91.00
23231;DHT22;11784;49.818;8.632;2022-11-20T15:55:50;11.10;91.00
23231;DHT22;11784;49.818;8.632;2022-11-20T15:58:16;11.10;90.90
23231;DHT22;11784;49.818;8.632;2022-11-20T16:00:42;11.10;90.90
23231;DHT22;11784;49.818;8.632;2022-11-20T16:03:12;11.10;90.80
23231;DHT22;11784;49.818;8.632;2022-11-20T16:05:38;11.10;90.80
23231;DHT22;11784;49.818;8.632;2022-11-20T16:08:04;11.10;90.70
23231;DHT22;11784;49.818;8.632;2022-11-20T16:10:29;11.10;90.70
23231;DHT22;11784;49.818;8.632;2022-11-20T16:12:55;11.10;90.70
23231;DHT22;11784;49.818;8.632;2022-11-20T16:15:39;11.10;90.70
23231;DHT22;11784;49.818;8.632;2022-11-20T16:18:12;11.10;90.60
23231;DHT22;11784;49.818;8.632;2022-11-20T16:20:38;11.00;90.50
23231;DHT22;11784;49.818;8.632;2022-11-20T16:23:05;11.00;90.40
23231;DHT22;11784;49.818;8.632;2022-11-20T16:25:31;11.00;90.40
23231;DHT22;11784;49.818;8.632;2022-11-20T16:27:56;11.00;90.50
23231;DHT22;11784;49.818;8.632;2022-11-20T16:30:22;11.00;90.50
23231;DHT22;11784;49.818;8.632;2022-11-20T16:32:47;11.00;90.60
23231;DHT22;11784;49.818;8.632;2022-11-20T16:35:14;11.10;90.30
23231;DHT22;11784;49.818;8.632;2022-11-20T16:37:40;11.10;90.50
23231;DHT22;11784;49.818;8.632;2022-11-20T16:40:06;11.10;90.60
23231;DHT22;11784;49.818;8.632;2022-11-20T16:42:35;11.10;90.50
23231;DHT22;11784;49.818;8.632;2022-11-20T16:45:01;11.10;90.50
23231;DHT22;11784;49.818;8.632;2022-11-20T16:47:26;11.10;90.30
23231;DHT22;11784;49.818;8.632;2022-11-20T16:49:52;11.10;90.00
23231;DHT22;11784;49.818;8.632;2022-11-20T16:52:17;11.10;90.10
23231;DHT22;11784;49.818;8.632;2022-11-20T16:54:43;11.00;90.20
23231;DHT22;11784;49.818;8.632;2022-11-20T16:57:08;11.00;90.00
23231;DHT22;11784;49.818;8.632;2022-11-20T16:59:34;11.00;90.10
23231;DHT22;11784;49.818;8.632;2022-11-20T17:01:59;11.00;89.60
23231;DHT22;11784;49.818;8.632;2022-11-20T17:04:25;11.00;89.30